Time;durP1;ratioP1;P1;durP2;ratioP2;P2;SDS_P1;SDS_P2;PMS_P1;PMS_P2;Temp;Humidity;BMP_temperature;BMP_pressure;BME280_temperature;BME280_humidity;BME280_pressure;Samples;Min_cycle;Max_cycle;Signal;HPM_P1;HPM_P2
2021/09/12 00:00:28;;;;;;;;;;;;;;;22.45;52.96;95925.66;1049114;28;823;-57
2021/09/12 00:00:58;;;;;;;;;;;;;;;22.45;52.72;95922.22;1048625;28;1124;-57
2021/09/12 00:01:29;;;;;;;;;;;;;;;22.46;52.83;95929.09;1048095;28;2151;-56
2021/09/12 00:01:59;;;;;;;;;;;;;;;22.44;53.04;95924.06;1048213;28;1531;-59
2021/09/12 00:02:29;;;;;;;;;;;;;;;22.45;52.88;95923.00;1049357;28;954;-56
2021/09/12 00:02:59;;;;;;;;;;;;;;;22.45;52.90;95927.50;1047949;28;1076;-59
2021/09/12 00:03:30;;;;;;;;;;;;;;;22.44;53.02;95926.69;1048854;28;1208;-58
2021/09/12 00:04:00;;;;;;;;;;;;;;;22.44;52.95;95921.41;1049000;28;1276;-56
2021/09/12 00:04:30;;;;;;;;;;;;;;;22.44;52.97;95925.94;1045480;28;1770;-59
2021/09/12 00:05:01;;;;;;;;;;;;;;;22.43;52.79;95922.50;1047560;28;1056;-58
2021/09/12 00:05:31;;;;;;;;;;;;;;;22.44;52.94;95921.41;1057313;28;1170;-58
2021/09/12 00:06:02;;;;;;;;;;;;;;;22.42;52.74;95923.56;1052938;28;1785;-57
2021/09/12 00:06:32;;;;;;;;;;;;;;;22.43;52.89;95927.78;1047745;28;1044;-56
2021/09/12 00:07:02;;;;;;;;;;;;;;;22.43;52.66;95924.34;1042612;28;2135;-58
2021/09/12 00:07:33;;;;;;;;;;;;;;;22.42;52.83;95925.44;1040543;28;721;-58
2021/09/12 00:08:03;;;;;;;;;;;;;;;22.43;52.82;95925.16;1040348;28;1926;-57
2021/09/12 00:08:33;;;;;;;;;;;;;;;22.42;52.64;95923.56;1044697;28;1469;-57
2021/09/12 00:09:04;;;;;;;;;;;;;;;22.42;52.77;95923.56;1048691;28;1049;-58
2021/09/12 00:09:34;;;;;;;;;;;;;;;22.41;52.66;95922.00;1048831;28;1072;-57
2021/09/12 00:10:05;;;;;;;;;;;;;;;22.41;52.62;95918.56;1049187;28;1075;-53
2021/09/12 00:10:35;;;;;;;;;;;;;;;22.40;52.71;95920.41;1049305;28;1081;-55
2021/09/12 00:11:06;;;;;;;;;;;;;;;22.42;52.84;95917.50;1048972;28;1128;-58
2021/09/12 00:11:36;;;;;;;;;;;;;;;22.41;52.59;95918.56;1049078;28;937;-59
2021/09/12 00:12:06;;;;;;;;;;;;;;;22.41;52.85;95918.56;1047125;28;2065;-56
2021/09/12 00:12:38;;;;;;;;;;;;;;;22.42;52.75;95920.91;1049084;28;749;-56
2021/09/12 00:13:08;;;;;;;;;;;;;;;22.41;52.85;95916.72;1048593;28;1176;-57
2021/09/12 00:13:41;;;;;;;;;;;;;;;22.41;52.62;95924.63;1048839;28;1390;-58
2021/09/12 00:14:11;;;;;;;;;;;;;;;22.41;52.47;95921.19;1049172;28;1153;-58
2021/09/12 00:14:41;;;;;;;;;;;;;;;22.41;52.66;95919.34;1048607;28;1121;-58
2021/09/12 00:15:12;;;;;;;;;;;;;;;22.40;52.60;95917.78;1049043;28;1510;-58
2021/09/12 00:15:42;;;;;;;;;;;;;;;22.40;52.94;95915.13;1049031;28;1025;-58
2021/09/12 00:16:13;;;;;;;;;;;;;;;22.40;52.55;95920.41;1049125;28;1135;-57
2021/09/12 00:16:44;;;;;;;;;;;;;;;22.41;52.72;95915.91;1048336;28;2065;-58
2021/09/12 00:17:15;;;;;;;;;;;;;;;22.41;52.98;95913.28;1047730;28;2124;-58
2021/09/12 00:17:45;;;;;;;;;;;;;;;22.40;52.68;95911.72;1047362;28;1005;-57
2021/09/12 00:18:16;;;;;;;;;;;;;;;22.40;52.77;95917.78;1048856;28;1127;-57
2021/09/12 00:18:46;;;;;;;;;;;;;;;22.40;52.79;95912.50;1048532;28;1409;-59
2021/09/12 00:19:17;;;;;;;;;;;;;;;22.39;52.85;95910.94;1049178;28;1138;-57
2021/09/12 00:19:47;;;;;;;;;;;;;;;22.40;52.91;95915.13;1048906;28;1094;-53
2021/09/12 00:20:18;;;;;;;;;;;;;;;22.40;52.90;95909.09;1049235;28;1154;-59
2021/09/12 00:20:48;;;;;;;;;;;;;;;22.40;52.57;95907.19;1049104;28;1178;-58
2021/09/12 00:21:18;;;;;;;;;;;;;;;22.40;52.78;95914.38;1046273;28;1607;-57
2021/09/12 00:21:48;;;;;;;;;;;;;;;22.39;52.77;95910.94;1045378;28;2111;-57
2021/09/12 00:22:19;;;;;;;;;;;;;;;22.40;52.48;95906.44;1048887;28;1717;-57
2021/09/12 00:22:49;;;;;;;;;;;;;;;22.39;52.85;95908.28;1048846;28;1075;-54
2021/09/12 00:23:19;;;;;;;;;;;;;;;22.40;52.57;95912.50;1048798;28;2437;-59
2021/09/12 00:23:50;;;;;;;;;;;;;;;22.40;52.63;95909.09;1044044;28;1395;-58
2021/09/12 00:24:20;;;;;;;;;;;;;;;22.40;52.54;95909.09;1044289;28;1143;-58
2021/09/12 00:24:51;;;;;;;;;;;;;;;22.39;52.69;95908.28;1042259;28;1570;-57
2021/09/12 00:25:21;;;;;;;;;;;;;;;22.40;52.59;95906.44;1044507;28;2129;-54
2021/09/12 00:25:52;;;;;;;;;;;;;;;22.39;52.43;95910.94;1049140;28;1049;-59
2021/09/12 00:26:22;;;;;;;;;;;;;;;22.38;52.59;95906.69;1048550;28;2057;-58
2021/09/12 00:26:52;;;;;;;;;;;;;;;22.39;52.85;95908.28;1048428;28;2179;-56
2021/09/12 00:27:23;;;;;;;;;;;;;;;22.39;52.70;95908.28;1051303;28;1325;-57
2021/09/12 00:27:53;;;;;;;;;;;;;;;22.38;52.79;95905.94;1052459;28;1965;-55
2021/09/12 00:28:23;;;;;;;;;;;;;;;22.38;52.81;95905.94;1048723;28;2178;-56
2021/09/12 00:28:54;;;;;;;;;;;;;;;22.38;52.69;95908.56;1050403;28;1176;-59
2021/09/12 00:29:24;;;;;;;;;;;;;;;22.38;52.76;95900.66;1048862;28;1200;-57
2021/09/12 00:29:56;;;;;;;;;;;;;;;22.38;52.73;95906.69;1048777;28;1201;-58
2021/09/12 00:30:28;;;;;;;;;;;;;;;22.38;52.51;95898.00;1049144;28;1244;-56
2021/09/12 00:30:58;;;;;;;;;;;;;;;22.36;52.53;95906.19;1048933;28;1091;-58
2021/09/12 00:31:29;;;;;;;;;;;;;;;22.37;52.50;95902.50;1048881;28;1413;-58
2021/09/12 00:31:59;;;;;;;;;;;;;;;22.36;52.52;95903.56;1048656;28;1154;-58
2021/09/12 00:32:29;;;;;;;;;;;;;;;22.36;52.49;95897.50;1047798;28;2114;-56
2021/09/12 00:32:59;;;;;;;;;;;;;;;22.36;52.50;95902.78;1047649;28;1065;-55
2021/09/12 00:33:31;;;;;;;;;;;;;;;22.36;52.66;95903.56;1048623;28;1248;-58
2021/09/12 00:34:01;;;;;;;;;;;;;;;22.36;52.39;95902.78;1048516;28;1367;-57
2021/09/12 00:34:32;;;;;;;;;;;;;;;22.36;52.73;95903.56;1048691;28;1332;-58
2021/09/12 00:35:03;;;;;;;;;;;;;;;22.37;52.51;95899.06;1047647;28;1756;-57
2021/09/12 00:35:33;;;;;;;;;;;;;;;22.36;52.75;95900.16;1048680;28;985;-57
2021/09/12 00:36:04;;;;;;;;;;;;;;;22.36;52.37;95897.50;1048698;28;1230;-58
2021/09/12 00:36:34;;;;;;;;;;;;;;;22.35;52.44;95898.56;1049261;28;923;-57
2021/09/12 00:37:05;;;;;;;;;;;;;;;22.35;52.64;95896.72;1048971;28;1091;-58
2021/09/12 00:37:35;;;;;;;;;;;;;;;22.36;52.53;95902.78;1047384;28;2048;-55
2021/09/12 00:38:07;;;;;;;;;;;;;;;22.36;52.47;95903.56;1049011;28;1155;-55
2021/09/12 00:38:37;;;;;;;;;;;;;;;22.34;52.54;95903.03;1048974;28;1390;-56
2021/09/12 00:39:07;;;;;;;;;;;;;;;22.34;52.74;95897.75;1048487;28;1632;-58
2021/09/12 00:39:38;;;;;;;;;;;;;;;22.34;52.58;95910.97;1048355;28;1466;-58
2021/09/12 00:40:08;;;;;;;;;;;;;;;22.35;52.52;95906.47;1048711;28;1676;-58
2021/09/12 00:40:38;;;;;;;;;;;;;;;22.34;52.54;95905.69;1048752;28;1131;-56
2021/09/12 00:41:09;;;;;;;;;;;;;;;22.36;52.49;95895.63;1050768;28;2070;-56
2021/09/12 00:41:40;;;;;;;;;;;;;;;22.35;52.54;95902.00;1044651;28;1073;-58
2021/09/12 00:42:11;;;;;;;;;;;;;;;22.36;52.76;95903.56;1049455;28;1209;-59
2021/09/12 00:42:41;;;;;;;;;;;;;;;22.36;52.63;95906.19;1047042;28;2069;-57
2021/09/12 00:43:12;;;;;;;;;;;;;;;22.35;52.47;95902.00;1048686;28;965;-58
2021/09/12 00:43:42;;;;;;;;;;;;;;;22.36;52.51;95900.16;1044090;28;1450;-54
2021/09/12 00:44:13;;;;;;;;;;;;;;;22.35;52.61;95902.00;1040236;28;1902;-59
2021/09/12 00:44:43;;;;;;;;;;;;;;;22.34;52.54;95902.28;1035092;28;1999;-58
2021/09/12 00:45:13;;;;;;;;;;;;;;;22.34;52.54;95905.69;1042063;28;2117;-56
2021/09/12 00:45:44;;;;;;;;;;;;;;;22.33;52.69;95906.78;1044090;28;1506;-58
2021/09/12 00:46:14;;;;;;;;;;;;;;;22.33;52.40;95909.41;1044518;28;1428;-57
2021/09/12 00:46:45;;;;;;;;;;;;;;;22.33;52.72;95901.50;1044514;28;1220;-58
2021/09/12 00:47:15;;;;;;;;;;;;;;;22.34;52.65;95905.69;1040354;28;1143;-58
2021/09/12 00:47:46;;;;;;;;;;;;;;;22.34;52.74;95904.91;1043497;28;1010;-57
2021/09/12 00:48:16;;;;;;;;;;;;;;;22.34;52.60;95900.41;1048505;28;1910;-57
2021/09/12 00:48:47;;;;;;;;;;;;;;;22.34;52.47;95904.91;1048683;28;1430;-57
2021/09/12 00:49:17;;;;;;;;;;;;;;;22.35;52.64;95911.75;1049119;28;1169;-56
2021/09/12 00:49:47;;;;;;;;;;;;;;;22.34;52.58;95900.41;1047770;28;2053;-58
2021/09/12 00:50:19;;;;;;;;;;;;;;;22.34;52.58;95902.28;1048126;28;1233;-58
2021/09/12 00:50:49;;;;;;;;;;;;;;;22.34;52.45;95903.03;1047935;28;1679;-56
2021/09/12 00:51:20;;;;;;;;;;;;;;;22.34;52.37;95907.56;1048548;28;1119;-58
2021/09/12 00:51:50;;;;;;;;;;;;;;;22.34;52.52;95907.56;1049012;28;1164;-58
2021/09/12 00:52:21;;;;;;;;;;;;;;;22.34;52.68;95904.91;1048384;28;1142;-56
2021/09/12 00:52:51;;;;;;;;;;;;;;;22.34;52.42;95910.19;1048558;28;1021;-58
2021/09/12 00:53:21;;;;;;;;;;;;;;;22.34;52.45;95908.31;1048681;28;1206;-58
2021/09/12 00:53:52;;;;;;;;;;;;;;;22.33;52.56;95909.41;1048158;28;1511;-58
2021/09/12 00:54:22;;;;;;;;;;;;;;;22.33;52.56;95906.78;1042747;28;1995;-58
2021/09/12 00:54:52;;;;;;;;;;;;;;;22.32;52.53;95905.19;1039214;28;2056;-57
2021/09/12 00:55:23;;;;;;;;;;;;;;;22.33;52.54;95909.41;1039383;28;2096;-58
2021/09/12 00:55:53;;;;;;;;;;;;;;;22.33;52.61;95909.41;1040336;28;1304;-58
2021/09/12 00:56:25;;;;;;;;;;;;;;;22.32;52.64;95909.66;1043836;28;1439;-58
2021/09/12 00:56:56;;;;;;;;;;;;;;;22.32;52.24;95913.09;1048326;28;1430;-58
2021/09/12 00:57:26;;;;;;;;;;;;;;;22.32;52.73;95913.09;1044761;28;1249;-58
2021/09/12 00:57:56;;;;;;;;;;;;;;;22.33;52.32;95909.41;1048289;28;1080;-58
2021/09/12 00:58:27;;;;;;;;;;;;;;;22.33;52.51;95912.06;1048450;28;1055;-58
2021/09/12 00:58:58;;;;;;;;;;;;;;;22.32;52.64;95907.81;1048558;28;1237;-58
2021/09/12 00:59:28;;;;;;;;;;;;;;;22.32;52.60;95907.81;1048902;28;792;-58
2021/09/12 00:59:59;;;;;;;;;;;;;;;22.32;52.75;95905.19;1046845;28;2046;-59
2021/09/12 01:00:29;;;;;;;;;;;;;;;22.32;52.64;95910.47;1048681;28;735;-58
2021/09/12 01:00:59;;;;;;;;;;;;;;;22.32;52.59;95904.38;1048210;28;1477;-58
2021/09/12 01:01:30;;;;;;;;;;;;;;;22.32;52.82;95913.09;1048697;28;1170;-56
2021/09/12 01:02:00;;;;;;;;;;;;;;;22.32;52.77;95909.66;1044318;28;1112;-57
2021/09/12 01:02:31;;;;;;;;;;;;;;;22.32;52.46;95910.47;1040009;28;856;-58
2021/09/12 01:03:01;;;;;;;;;;;;;;;22.33;52.46;95911.25;1043676;28;1061;-58
2021/09/12 01:03:31;;;;;;;;;;;;;;;22.32;52.35;95907.81;1043192;28;1683;-58
2021/09/12 01:04:02;;;;;;;;;;;;;;;22.32;52.56;95910.47;1047381;28;1213;-58
2021/09/12 01:04:32;;;;;;;;;;;;;;;22.32;52.71;95902.53;1048719;28;764;-58
2021/09/12 01:05:03;;;;;;;;;;;;;;;22.32;52.63;95910.47;1047572;28;2073;-59
2021/09/12 01:05:34;;;;;;;;;;;;;;;22.32;52.38;95902.53;1049091;28;823;-58
2021/09/12 01:06:04;;;;;;;;;;;;;;;22.32;52.47;95902.53;1047986;28;2041;-58
2021/09/12 01:06:34;;;;;;;;;;;;;;;22.33;52.59;95898.06;1048964;28;1044;-56
2021/09/12 01:07:05;;;;;;;;;;;;;;;22.31;52.57;95900.97;1048846;28;925;-56
2021/09/12 01:07:37;;;;;;;;;;;;;;;22.32;52.27;95901.75;1048867;28;1197;-58
2021/09/12 01:08:07;;;;;;;;;;;;;;;22.32;52.49;95904.38;1048398;28;1945;-54
2021/09/12 01:08:42;;;;;;;;;;;;;;;22.31;52.47;95900.97;1048362;28;1456;-56
2021/09/12 01:09:12;;;;;;;;;;;;;;;22.31;52.53;95900.97;1039969;28;1476;-57
2021/09/12 01:09:45;;;;;;;;;;;;;;;22.31;52.39;95900.97;1040438;28;2113;-58
2021/09/12 01:10:17;;;;;;;;;;;;;;;22.30;52.67;95903.88;1039539;28;1132;-56
2021/09/12 01:10:48;;;;;;;;;;;;;;;22.30;52.60;95899.41;1041513;28;1133;-57
2021/09/12 01:11:23;;;;;;;;;;;;;;;22.30;52.54;95909.16;1043140;28;1665;-56
2021/09/12 01:12:13;;;;;;;;;;;;;;;22.29;52.64;95913.69;1047744;28;1928;-58
2021/09/12 01:12:48;;;;;;;;;;;;;;;22.29;52.73;95908.41;1044215;28;1548;-56
2021/09/12 01:13:18;;;;;;;;;;;;;;;22.29;52.55;95908.41;1047509;28;1242;-53
2021/09/12 01:13:48;;;;;;;;;;;;;;;22.29;52.27;95903.13;1048577;28;1256;-56
2021/09/12 01:14:23;;;;;;;;;;;;;;;22.30;52.54;95903.88;1048451;28;1209;-57
2021/09/12 01:15:10;;;;;;;;;;;;;;;22.29;52.67;95897.84;1043440;28;2353;-54
2021/09/12 01:15:51;;;;;;;;;;;;;;;22.29;52.55;95908.41;1040209;28;1042;-54
2021/09/12 01:16:23;;;;;;;;;;;;;;;22.30;52.34;95909.16;1040185;28;1305;-57
2021/09/12 01:16:54;;;;;;;;;;;;;;;22.29;52.41;95904.97;1044139;28;939;-58
2021/09/12 01:17:32;;;;;;;;;;;;;;;22.28;52.57;95898.88;1045144;28;1262;-57
2021/09/12 01:18:02;;;;;;;;;;;;;;;22.28;52.41;95901.53;1047714;28;1108;-58
2021/09/12 01:18:33;;;;;;;;;;;;;;;22.29;52.76;95903.13;1048724;28;800;-55
2021/09/12 01:19:04;;;;;;;;;;;;;;;22.29;52.66;95910.25;1048506;28;1215;-58
2021/09/12 01:19:35;;;;;;;;;;;;;;;22.29;52.34;95899.69;1048487;28;1468;-56
2021/09/12 01:20:15;;;;;;;;;;;;;;;22.29;52.43;95902.31;1044066;28;1632;-56
2021/09/12 01:21:06;;;;;;;;;;;;;;;22.28;52.62;95904.16;1042551;28;1760;-57
2021/09/12 01:21:36;;;;;;;;;;;;;;;22.29;52.69;95900.47;1048353;28;1158;-56
2021/09/12 01:22:07;;;;;;;;;;;;;;;22.28;52.41;95904.16;1048615;28;1132;-55
2021/09/12 01:22:37;;;;;;;;;;;;;;;22.29;52.33;95902.31;1048711;28;1091;-57
2021/09/12 01:23:08;;;;;;;;;;;;;;;22.28;52.34;95906.81;1048575;28;1170;-57
2021/09/12 01:23:38;;;;;;;;;;;;;;;22.29;52.57;95904.97;1048369;28;1374;-57
2021/09/12 01:24:16;;;;;;;;;;;;;;;22.29;52.37;95899.69;1051611;28;1677;-56
2021/09/12 01:24:58;;;;;;;;;;;;;;;22.28;52.38;95896.25;1046344;28;2082;-55
2021/09/12 01:25:48;;;;;;;;;;;;;;;22.29;52.55;95897.84;1048405;28;1406;-57
2021/09/12 01:26:22;;;;;;;;;;;;;;;22.28;52.48;95898.88;1048274;28;1498;-57
2021/09/12 01:26:53;;;;;;;;;;;;;;;22.28;52.38;95898.88;1046199;28;1096;-55
2021/09/12 01:27:23;;;;;;;;;;;;;;;22.28;52.80;95895.44;1048280;28;1250;-57
2021/09/12 01:27:53;;;;;;;;;;;;;;;22.27;52.49;95894.69;1048518;28;874;-57
2021/09/12 01:28:24;;;;;;;;;;;;;;;22.27;52.56;95896.53;1052891;28;1130;-56
2021/09/12 01:28:54;;;;;;;;;;;;;;;22.27;52.79;95894.69;1048609;28;1133;-53
2021/09/12 01:29:24;;;;;;;;;;;;;;;22.27;52.57;95897.34;1044436;28;1468;-56
2021/09/12 01:29:55;;;;;;;;;;;;;;;22.27;52.56;95897.34;1043418;28;2081;-57
2021/09/12 01:30:25;;;;;;;;;;;;;;;22.27;52.58;95891.25;1044551;28;1375;-58
2021/09/12 01:30:55;;;;;;;;;;;;;;;22.26;52.41;95892.31;1048130;28;1367;-56
2021/09/12 01:31:27;;;;;;;;;;;;;;;22.26;52.52;95887.81;1048167;28;2096;-57
2021/09/12 01:31:57;;;;;;;;;;;;;;;22.26;52.56;95893.09;1045967;28;2119;-56
2021/09/12 01:32:27;;;;;;;;;;;;;;;22.27;52.53;95889.41;1048692;28;1112;-56
2021/09/12 01:32:58;;;;;;;;;;;;;;;22.27;52.51;95897.34;1046681;28;1625;-55
2021/09/12 01:33:28;;;;;;;;;;;;;;;22.27;52.55;95894.69;1044573;28;850;-55
2021/09/12 01:33:59;;;;;;;;;;;;;;;22.27;52.60;95892.06;1047322;28;1327;-54
2021/09/12 01:34:29;;;;;;;;;;;;;;;22.27;52.48;95892.06;1048515;28;1013;-58
2021/09/12 01:34:59;;;;;;;;;;;;;;;22.26;52.65;95893.09;1047344;28;2017;-57
2021/09/12 01:35:30;;;;;;;;;;;;;;;22.27;52.73;95899.97;1048614;28;1367;-56
2021/09/12 01:36:00;;;;;;;;;;;;;;;22.27;52.36;95889.41;1043676;28;1868;-57
2021/09/12 01:36:30;;;;;;;;;;;;;;;22.26;52.66;95890.47;1044391;28;1139;-54
2021/09/12 01:37:01;;;;;;;;;;;;;;;22.27;52.68;95889.41;1044210;28;1186;-58
2021/09/12 01:37:31;;;;;;;;;;;;;;;22.27;52.55;95897.34;1044081;28;1036;-57
2021/09/12 01:38:01;;;;;;;;;;;;;;;22.27;52.46;95889.41;1048328;28;1048;-58
2021/09/12 01:38:31;;;;;;;;;;;;;;;22.28;52.74;95893.59;1048586;28;1198;-57
2021/09/12 01:39:02;;;;;;;;;;;;;;;22.28;52.77;95890.97;1048196;28;1181;-57
2021/09/12 01:39:32;;;;;;;;;;;;;;;22.28;52.59;95890.97;1048883;28;1484;-54
2021/09/12 01:40:03;;;;;;;;;;;;;;;22.27;52.36;95889.41;1047505;28;2057;-56
2021/09/12 01:40:33;;;;;;;;;;;;;;;22.27;52.39;95885.97;1048929;28;1122;-57
2021/09/12 01:41:04;;;;;;;;;;;;;;;22.26;52.51;95885.19;1048825;28;1059;-57
2021/09/12 01:41:34;;;;;;;;;;;;;;;22.27;52.35;95888.63;1047378;28;1649;-58
2021/09/12 01:42:04;;;;;;;;;;;;;;;22.27;52.35;95885.97;1048130;28;1108;-56
2021/09/12 01:42:35;;;;;;;;;;;;;;;22.27;52.30;95883.34;1052891;28;1365;-53
2021/09/12 01:43:05;;;;;;;;;;;;;;;22.27;52.33;95885.97;1049434;28;1134;-56
2021/09/12 01:43:57;;;;;;;;;;;;;;;22.26;52.54;95882.53;1044853;28;949;-56
2021/09/12 01:44:27;;;;;;;;;;;;;;;22.26;52.63;95887.81;1044241;28;1204;-57
2021/09/12 01:44:57;;;;;;;;;;;;;;;22.25;52.43;95883.63;1045996;28;2130;-58
2021/09/12 01:45:28;;;;;;;;;;;;;;;22.25;52.49;95880.97;1048433;28;1016;-57
2021/09/12 01:45:58;;;;;;;;;;;;;;;22.25;52.43;95885.47;1048462;28;1060;-56
2021/09/12 01:46:28;;;;;;;;;;;;;;;22.25;52.60;95883.63;1048131;28;1336;-58
2021/09/12 01:46:59;;;;;;;;;;;;;;;22.25;52.64;95883.63;1048492;28;1196;-57
2021/09/12 01:47:29;;;;;;;;;;;;;;;22.25;52.63;95886.25;1048860;28;733;-57
2021/09/12 01:48:00;;;;;;;;;;;;;;;22.25;52.44;95880.97;1047234;28;1959;-55
2021/09/12 01:48:30;;;;;;;;;;;;;;;22.24;52.72;95883.88;1047888;28;1561;-57
2021/09/12 01:49:02;;;;;;;;;;;;;;;22.25;52.42;95888.09;1048489;28;1041;-54
2021/09/12 01:49:32;;;;;;;;;;;;;;;22.24;52.68;95882.03;1048677;28;1009;-57
2021/09/12 01:50:03;;;;;;;;;;;;;;;22.26;52.36;95884.38;1047744;28;2227;-56
2021/09/12 01:50:33;;;;;;;;;;;;;;;22.26;52.56;95881.75;1045609;28;1719;-57
2021/09/12 01:51:04;;;;;;;;;;;;;;;22.24;52.53;95878.59;1047814;28;1176;-57
2021/09/12 01:51:34;;;;;;;;;;;;;;;22.24;52.34;95878.59;1048828;28;1247;-56
2021/09/12 01:52:04;;;;;;;;;;;;;;;22.24;52.44;95879.38;1048360;28;1184;-57
2021/09/12 01:52:35;;;;;;;;;;;;;;;22.24;52.53;95876.75;1048254;28;1362;-55
2021/09/12 01:53:05;;;;;;;;;;;;;;;22.25;52.38;95875.69;1048680;28;1517;-57
2021/09/12 01:53:35;;;;;;;;;;;;;;;22.25;52.64;95883.63;1048685;28;1197;-56
2021/09/12 01:54:05;;;;;;;;;;;;;;;22.26;52.38;95882.53;1048635;28;1231;-57
2021/09/12 01:54:36;;;;;;;;;;;;;;;22.25;52.61;95880.19;1048179;28;1417;-58
2021/09/12 01:55:06;;;;;;;;;;;;;;;22.25;52.33;95885.47;1046608;28;2045;-58
2021/09/12 01:55:37;;;;;;;;;;;;;;;22.23;52.34;95875.19;1048798;28;1408;-56
2021/09/12 01:56:07;;;;;;;;;;;;;;;22.24;52.53;95873.31;1047076;28;1653;-55
2021/09/12 01:56:37;;;;;;;;;;;;;;;22.25;52.29;95880.19;1047963;28;1260;-57
2021/09/12 01:57:08;;;;;;;;;;;;;;;22.24;52.38;95879.38;1046660;28;2034;-59
2021/09/12 01:57:39;;;;;;;;;;;;;;;22.25;52.38;95890.75;1048442;28;1013;-56
2021/09/12 01:58:09;;;;;;;;;;;;;;;22.24;52.34;95882.03;1044291;28;1087;-57
2021/09/12 01:58:39;;;;;;;;;;;;;;;22.23;52.27;95874.41;1044785;28;1864;-54
2021/09/12 01:59:10;;;;;;;;;;;;;;;22.23;52.31;95879.69;1048408;28;1270;-54
2021/09/12 01:59:40;;;;;;;;;;;;;;;22.23;52.30;95883.13;1052508;28;1469;-58
2021/09/12 02:00:10;;;;;;;;;;;;;;;22.23;52.44;95882.31;1055061;28;1902;-56
2021/09/12 02:00:41;;;;;;;;;;;;;;;22.24;52.36;95881.25;1056913;28;1028;-58
2021/09/12 02:01:11;;;;;;;;;;;;;;;22.24;52.51;95876.75;1052541;28;1047;-58
2021/09/12 02:01:41;;;;;;;;;;;;;;;22.23;52.34;95879.69;1047584;28;1925;-56
2021/09/12 02:02:12;;;;;;;;;;;;;;;22.24;52.40;95878.59;1048436;28;1186;-57
2021/09/12 02:02:42;;;;;;;;;;;;;;;22.24;52.17;95875.97;1047026;28;1434;-58
2021/09/12 02:03:12;;;;;;;;;;;;;;;22.23;52.27;95877.84;1047776;28;1175;-55
2021/09/12 02:03:43;;;;;;;;;;;;;;;22.22;52.54;95875.44;1047379;28;1498;-55
2021/09/12 02:04:13;;;;;;;;;;;;;;;22.22;52.33;95876.25;1048894;28;1110;-57
2021/09/12 02:04:44;;;;;;;;;;;;;;;22.22;52.40;95875.44;1048731;28;1056;-56
2021/09/12 02:05:14;;;;;;;;;;;;;;;22.23;52.37;95875.19;1046411;28;2004;-56
2021/09/12 02:05:44;;;;;;;;;;;;;;;22.22;52.29;95881.53;1047938;28;1598;-58
2021/09/12 02:06:15;;;;;;;;;;;;;;;22.23;52.30;95880.47;1048530;28;1305;-54
2021/09/12 02:06:45;;;;;;;;;;;;;;;22.23;52.48;95871.75;1048245;28;1099;-56
2021/09/12 02:07:15;;;;;;;;;;;;;;;22.23;52.54;95882.31;1048587;28;1118;-56
2021/09/12 02:07:46;;;;;;;;;;;;;;;22.22;52.49;95878.09;1048631;28;1079;-55
2021/09/12 02:08:16;;;;;;;;;;;;;;;22.22;52.31;95873.59;1048558;28;1906;-56
2021/09/12 02:08:46;;;;;;;;;;;;;;;22.22;52.43;95878.09;1048720;28;1441;-58
2021/09/12 02:09:17;;;;;;;;;;;;;;;22.23;52.58;95877.84;1048777;28;1118;-54
2021/09/12 02:09:47;;;;;;;;;;;;;;;22.23;52.33;95880.47;1048722;28;1043;-58
2021/09/12 02:10:17;;;;;;;;;;;;;;;22.23;52.32;95877.84;1047435;28;1865;-56
2021/09/12 02:10:47;;;;;;;;;;;;;;;22.23;52.56;95880.47;1048805;28;1044;-57
2021/09/12 02:11:18;;;;;;;;;;;;;;;22.23;52.26;95877.84;1048534;28;1181;-57
2021/09/12 02:11:48;;;;;;;;;;;;;;;22.22;52.42;95881.53;1048583;28;1182;-57
2021/09/12 02:12:19;;;;;;;;;;;;;;;22.23;52.27;95885.75;1048558;28;1255;-53
2021/09/12 02:12:49;;;;;;;;;;;;;;;22.23;52.36;95882.31;1048120;28;1001;-55
2021/09/12 02:13:19;;;;;;;;;;;;;;;22.22;52.31;95876.25;1050916;28;1634;-55
2021/09/12 02:13:49;;;;;;;;;;;;;;;22.22;52.30;95886.81;1052461;28;1208;-58
2021/09/12 02:14:20;;;;;;;;;;;;;;;22.22;52.39;95880.72;1056662;28;1154;-57
2021/09/12 02:14:50;;;;;;;;;;;;;;;22.21;52.33;95882.59;1056811;28;1079;-55
2021/09/12 02:15:21;;;;;;;;;;;;;;;22.21;52.33;95873.91;1047249;28;2140;-55
2021/09/12 02:15:51;;;;;;;;;;;;;;;22.21;52.24;95885.25;1048851;28;1016;-54
2021/09/12 02:16:22;;;;;;;;;;;;;;;22.22;52.58;95884.16;1048484;28;1158;-58
2021/09/12 02:16:52;;;;;;;;;;;;;;;22.21;52.64;95879.19;1048628;28;1529;-58
2021/09/12 02:17:23;;;;;;;;;;;;;;;22.22;52.24;95881.53;1048340;28;1364;-53
2021/09/12 02:17:54;;;;;;;;;;;;;;;22.22;52.53;95878.09;1047079;28;946;-58
2021/09/12 02:18:24;;;;;;;;;;;;;;;22.23;52.58;95882.31;1048534;28;1202;-54
2021/09/12 02:18:54;;;;;;;;;;;;;;;22.23;52.54;95877.84;1048496;28;1096;-58
2021/09/12 02:19:25;;;;;;;;;;;;;;;22.22;52.67;95880.72;1048832;28;1064;-55
2021/09/12 02:19:56;;;;;;;;;;;;;;;22.22;52.44;95878.88;1048746;28;1083;-54
2021/09/12 02:20:26;;;;;;;;;;;;;;;22.22;52.30;95878.88;1047369;28;2250;-54
2021/09/12 02:20:56;;;;;;;;;;;;;;;22.23;52.42;95871.75;1048489;28;1621;-57
2021/09/12 02:21:27;;;;;;;;;;;;;;;22.22;52.56;95876.25;1049087;28;1013;-54
2021/09/12 02:21:57;;;;;;;;;;;;;;;22.22;52.58;95884.16;1048520;28;1020;-57
2021/09/12 02:22:27;;;;;;;;;;;;;;;22.22;52.54;95878.09;1048965;28;1028;-55
2021/09/12 02:22:58;;;;;;;;;;;;;;;22.22;52.46;95880.72;1047545;28;1632;-55
2021/09/12 02:23:28;;;;;;;;;;;;;;;22.22;52.46;95875.44;1048899;28;1134;-56
2021/09/12 02:23:58;;;;;;;;;;;;;;;22.22;52.32;95876.25;1056305;28;1235;-57
2021/09/12 02:24:28;;;;;;;;;;;;;;;22.22;52.20;95873.59;1056658;28;1059;-57
2021/09/12 02:24:59;;;;;;;;;;;;;;;22.22;52.48;95875.44;1055530;28;1517;-58
2021/09/12 02:25:29;;;;;;;;;;;;;;;22.21;52.33;95877.31;1055303;28;2235;-57
2021/09/12 02:25:59;;;;;;;;;;;;;;;22.21;52.58;95874.69;1047154;28;2310;-56
2021/09/12 02:26:29;;;;;;;;;;;;;;;22.21;52.63;95868.63;1048863;28;851;-54
2021/09/12 02:27:00;;;;;;;;;;;;;;;22.21;52.61;95877.31;1048304;28;1478;-56
2021/09/12 02:27:30;;;;;;;;;;;;;;;22.22;52.39;95875.44;1047872;28;1422;-58
2021/09/12 02:28:01;;;;;;;;;;;;;;;22.21;52.57;95873.91;1048125;28;1910;-56
2021/09/12 02:28:31;;;;;;;;;;;;;;;22.22;52.56;95878.09;1048575;28;823;-55
2021/09/12 02:29:02;;;;;;;;;;;;;;;22.21;52.40;95873.91;1048617;28;1056;-54
2021/09/12 02:29:32;;;;;;;;;;;;;;;22.21;52.50;95879.19;1047960;28;2021;-58
2021/09/12 02:30:03;;;;;;;;;;;;;;;22.20;52.41;95872.31;1046398;28;1790;-57
2021/09/12 02:30:33;;;;;;;;;;;;;;;22.20;52.31;95878.38;1048242;28;1496;-56
2021/09/12 02:31:04;;;;;;;;;;;;;;;22.20;52.65;95881.03;1048297;28;1129;-55
2021/09/12 02:31:34;;;;;;;;;;;;;;;22.20;52.55;95877.59;1048750;28;1526;-57
2021/09/12 02:32:04;;;;;;;;;;;;;;;22.19;52.50;95871.53;1048507;28;1068;-55
2021/09/12 02:32:35;;;;;;;;;;;;;;;22.19;52.75;95873.38;1047461;28;1020;-56
2021/09/12 02:33:05;;;;;;;;;;;;;;;22.20;52.30;95877.59;1048449;28;1193;-56
2021/09/12 02:33:35;;;;;;;;;;;;;;;22.19;52.50;95876.03;1048767;28;1224;-57
2021/09/12 02:34:06;;;;;;;;;;;;;;;22.20;52.41;95880.22;1048379;28;1375;-56
2021/09/12 02:34:36;;;;;;;;;;;;;;;22.19;52.44;95882.09;1046746;28;1747;-56
2021/09/12 02:35:07;;;;;;;;;;;;;;;22.19;52.38;95881.31;1046360;28;2056;-57
2021/09/12 02:35:37;;;;;;;;;;;;;;;22.19;52.47;95882.09;1048462;28;1764;-54
2021/09/12 02:36:08;;;;;;;;;;;;;;;22.19;52.37;95882.09;1048730;28;1080;-55
2021/09/12 02:36:38;;;;;;;;;;;;;;;22.18;52.31;95877.88;1048720;28;808;-52
2021/09/12 02:37:08;;;;;;;;;;;;;;;22.19;52.46;95884.75;1048435;28;1091;-52
2021/09/12 02:37:39;;;;;;;;;;;;;;;22.19;52.38;95883.94;1048702;28;1147;-56
2021/09/12 02:38:09;;;;;;;;;;;;;;;22.19;52.57;95884.75;1048620;28;1088;-58
2021/09/12 02:38:39;;;;;;;;;;;;;;;22.18;52.40;95883.16;1048132;28;1374;-57
2021/09/12 02:39:10;;;;;;;;;;;;;;;22.19;52.28;95881.31;1048256;28;1251;-55
2021/09/12 02:39:40;;;;;;;;;;;;;;;22.19;52.43;95879.47;1048412;28;1177;-57
2021/09/12 02:40:10;;;;;;;;;;;;;;;22.19;52.64;95890.03;1047633;28;2064;-52
2021/09/12 02:40:41;;;;;;;;;;;;;;;22.18;52.40;95883.16;1048349;28;1009;-58
2021/09/12 02:41:11;;;;;;;;;;;;;;;22.19;52.47;95890.03;1048337;28;1438;-57
2021/09/12 02:41:42;;;;;;;;;;;;;;;22.19;52.64;95890.03;1048475;28;1108;-56
2021/09/12 02:42:12;;;;;;;;;;;;;;;22.18;52.46;95880.50;1048267;28;1138;-57
2021/09/12 02:42:42;;;;;;;;;;;;;;;22.19;52.40;95881.31;1047978;28;1017;-58
2021/09/12 02:43:13;;;;;;;;;;;;;;;22.19;52.40;95886.59;1048184;28;1505;-56
2021/09/12 02:43:43;;;;;;;;;;;;;;;22.17;52.38;95894.81;1047517;28;1342;-56